createdAt,value
2022-08-23T00:02:29.109Z,7.97
2022-08-23T00:07:28.153Z,7.80
2022-08-23T00:12:29.586Z,8.53
2022-08-23T00:17:34.380Z,10.97
2022-08-23T00:22:33.177Z,11.60
2022-08-23T00:27:33.494Z,12.70
2022-08-23T00:32:34.424Z,8.50
2022-08-23T00:37:34.080Z,7.37
2022-08-23T00:42:53.547Z,7.70
2022-08-23T00:47:52.168Z,8.37
2022-08-23T00:52:58.684Z,14.73
2022-08-23T00:57:59.083Z,8.23
2022-08-23T01:02:58.049Z,6.80
2022-08-23T01:08:00.406Z,6.93
2022-08-23T01:13:03.843Z,8.73
2022-08-23T01:18:05.724Z,7.10
2022-08-23T01:23:10.262Z,9.03
2022-08-23T01:28:10.025Z,7.00
2022-08-23T01:33:08.927Z,8.70
2022-08-23T01:38:08.854Z,8.40
2022-08-23T01:43:09.328Z,8.30
2022-08-23T01:48:09.065Z,7.70
2022-08-23T01:53:08.172Z,6.63
2022-08-23T01:58:08.109Z,6.50
2022-08-23T02:03:09.598Z,7.97
2022-08-23T02:08:31.878Z,8.43
2022-08-23T02:13:31.560Z,8.30
2022-08-23T02:18:32.891Z,8.57
2022-08-23T02:23:31.468Z,10.37
2022-08-23T02:28:29.711Z,7.43
2022-08-23T02:33:30.315Z,9.43
2022-08-23T02:38:28.744Z,6.07
2022-08-23T02:43:26.990Z,8.13
2022-08-23T02:48:25.275Z,8.60
2022-08-23T02:53:35.388Z,8.03
2022-08-23T02:58:37.226Z,9.23
2022-08-23T03:03:36.559Z,7.90
2022-08-23T03:08:38.466Z,14.87
2022-08-23T03:13:36.745Z,10.10
2022-08-23T03:18:35.183Z,9.90
2022-08-23T03:23:34.027Z,9.07
2022-08-23T03:28:35.838Z,7.97
2022-08-23T03:33:35.327Z,10.30
2022-08-23T03:38:35.417Z,7.93
2022-08-23T03:43:39.342Z,7.60
2022-08-23T03:48:37.888Z,8.00
2022-08-23T03:53:36.933Z,7.80
2022-08-23T03:58:37.964Z,8.43
2022-08-23T04:03:36.434Z,9.43
2022-08-23T04:08:36.492Z,9.17
2022-08-23T04:13:39.186Z,8.63
2022-08-23T04:18:37.847Z,8.73
2022-08-23T04:23:39.532Z,10.20
2022-08-23T04:28:40.307Z,7.47
2022-08-23T04:33:40.272Z,10.30
2022-08-23T04:38:41.165Z,8.57
2022-08-23T04:43:45.361Z,10.50
2022-08-23T04:48:46.200Z,9.20
2022-08-23T04:53:45.504Z,8.47
2022-08-23T04:59:03.336Z,7.83
2022-08-23T05:04:03.227Z,8.30
2022-08-23T05:09:02.783Z,9.20
2022-08-23T05:14:03.611Z,7.90
2022-08-23T05:19:02.394Z,7.90
2022-08-23T05:24:03.726Z,12.33
2022-08-23T05:29:05.230Z,9.17
2022-08-23T05:34:10.092Z,7.43
2022-08-23T05:39:21.193Z,7.47
2022-08-23T05:44:36.238Z,11.63
2022-08-23T05:49:37.484Z,8.27
2022-08-23T05:54:36.518Z,7.63
2022-08-23T05:59:54.657Z,13.33
2022-08-23T06:04:57.151Z,10.73
2022-08-23T06:09:56.093Z,9.00
2022-08-23T06:14:55.840Z,8.10
2022-08-23T06:19:54.625Z,10.80
2022-08-23T06:24:58.355Z,10.60
2022-08-23T06:30:16.866Z,10.90
2022-08-23T06:35:38.320Z,8.23
2022-08-23T06:40:38.561Z,10.20
2022-08-23T06:46:13.283Z,8.00
2022-08-23T06:51:12.916Z,11.63
2022-08-23T06:56:28.392Z,11.40
2022-08-23T07:01:47.566Z,12.57
2022-08-23T07:06:56.699Z,11.60
2022-08-23T07:11:55.320Z,12.90
2022-08-23T07:16:56.855Z,16.00
2022-08-23T07:21:55.327Z,11.83
2022-08-23T07:26:54.076Z,12.67
2022-08-23T07:31:56.798Z,13.33
2022-08-23T07:36:56.093Z,15.43
2022-08-23T07:41:59.458Z,11.20
2022-08-23T07:47:00.775Z,16.83
2022-08-23T07:52:00.384Z,14.50
2022-08-23T07:56:59.122Z,28.07
2022-08-23T08:02:23.295Z,36.43
2022-08-23T08:07:22.617Z,14.37
2022-08-23T08:12:30.158Z,14.13
2022-08-23T08:17:33.827Z,70.70
2022-08-23T08:22:49.922Z,14.33
2022-08-23T08:28:33.616Z,18.17
2022-08-23T08:33:34.355Z,17.73
2022-08-23T08:38:36.782Z,13.80
2022-08-23T08:43:51.933Z,22.40
2022-08-23T08:48:56.598Z,16.70
2022-08-23T08:53:56.859Z,18.57
2022-08-23T08:59:12.504Z,15.70
2022-08-23T09:04:12.605Z,22.70
2022-08-23T09:09:29.437Z,20.40
2022-08-23T09:14:57.533Z,22.47
2022-08-23T09:20:01.117Z,18.50
2022-08-23T09:25:00.031Z,32.03
2022-08-23T09:30:08.632Z,19.63
2022-08-23T09:35:14.405Z,20.87
2022-08-23T09:40:20.909Z,23.00
2022-08-23T09:45:29.770Z,20.70
2022-08-23T09:50:39.016Z,19.80
2022-08-23T09:55:40.226Z,22.53
2022-08-23T10:00:39.215Z,24.27
2022-08-23T10:05:42.588Z,23.63
2022-08-23T10:10:51.792Z,22.30
2022-08-23T10:16:08.658Z,23.70
2022-08-23T10:21:24.192Z,22.07
2022-08-23T10:26:31.564Z,25.13
2022-08-23T10:31:39.950Z,36.83
2022-08-23T10:36:53.941Z,22.30
2022-08-23T10:41:59.981Z,25.10
2022-08-23T10:47:11.608Z,25.43
2022-08-23T10:52:20.703Z,25.23
2022-08-23T10:57:21.834Z,23.77
2022-08-23T11:02:36.651Z,29.17
2022-08-23T11:08:07.343Z,26.30
2022-08-23T11:13:20.801Z,25.70
2022-08-23T11:18:42.855Z,30.37
2022-08-23T11:23:51.128Z,31.30
2022-08-23T11:28:51.423Z,33.03
2022-08-23T11:34:01.114Z,49.30
2022-08-23T11:39:11.719Z,35.47
2022-08-23T11:44:28.416Z,26.77
2022-08-23T11:49:48.642Z,25.43
2022-08-23T11:55:05.387Z,32.90
2022-08-23T12:00:17.616Z,69.67
2022-08-23T12:05:33.429Z,31.77
2022-08-23T12:11:01.536Z,30.70
2022-08-23T12:16:16.290Z,31.07
2022-08-23T12:21:22.250Z,30.27
2022-08-23T12:26:27.653Z,34.90
2022-08-23T12:31:34.843Z,28.97
2022-08-23T12:36:37.662Z,31.73
2022-08-23T12:41:53.988Z,49.47
2022-08-23T12:46:53.436Z,36.30
2022-08-23T12:51:53.518Z,56.73
2022-08-23T12:56:55.863Z,31.67
2022-08-23T13:01:54.395Z,31.90
2022-08-23T13:06:57.057Z,32.00
2022-08-23T13:11:59.035Z,29.90
2022-08-23T13:16:58.857Z,31.13
2022-08-23T13:22:14.311Z,31.83
2022-08-23T13:27:22.548Z,30.17
2022-08-23T13:32:32.839Z,31.27
2022-08-23T13:37:33.405Z,35.70
2022-08-23T13:42:42.777Z,32.47
2022-08-23T13:47:49.641Z,32.00
2022-08-23T13:53:11.522Z,36.40
2022-08-23T13:58:11.412Z,35.60
2022-08-23T14:03:09.686Z,30.30
2022-08-23T14:08:09.658Z,32.13
2022-08-23T14:13:10.945Z,32.30
2022-08-23T14:18:10.471Z,31.60
2022-08-23T14:23:12.020Z,28.53
2022-08-23T14:28:13.310Z,34.13
2022-08-23T14:33:11.599Z,33.20
2022-08-23T14:38:13.437Z,27.33
2022-08-23T14:43:13.310Z,32.43
2022-08-23T14:48:11.645Z,31.37
2022-08-23T14:53:10.732Z,30.20
2022-08-23T14:58:09.072Z,28.00
2022-08-23T15:03:12.020Z,26.20
2022-08-23T15:08:10.668Z,28.43
2022-08-23T15:13:27.041Z,25.67
2022-08-23T15:18:28.979Z,22.27
2022-08-23T15:23:28.391Z,22.87
2022-08-23T15:28:27.873Z,22.70
2022-08-23T15:33:30.833Z,23.93
2022-08-23T15:38:32.452Z,22.40
2022-08-23T15:43:34.450Z,20.90
2022-08-23T15:48:42.600Z,20.60
2022-08-23T15:53:42.940Z,20.40
2022-08-23T15:58:42.118Z,21.03
2022-08-23T16:03:43.776Z,19.27
2022-08-23T16:08:45.265Z,20.90
2022-08-23T16:13:45.854Z,19.70
2022-08-23T16:18:45.816Z,19.07
2022-08-23T16:23:46.896Z,17.50
2022-08-23T16:28:46.054Z,17.77
2022-08-23T16:33:47.794Z,17.63
2022-08-23T16:38:46.597Z,18.00
2022-08-23T16:43:45.211Z,16.63
2022-08-23T16:48:43.941Z,19.87
2022-08-23T16:53:43.569Z,19.20
2022-08-23T16:58:52.725Z,17.63
2022-08-23T17:03:51.065Z,17.20
2022-08-23T17:08:51.051Z,16.90
2022-08-23T17:13:49.323Z,16.33
2022-08-23T17:18:47.817Z,16.90
2022-08-23T17:23:54.024Z,17.50
2022-08-23T17:28:52.274Z,17.03
2022-08-23T17:33:50.552Z,16.93
2022-08-23T17:38:48.961Z,14.80
2022-08-23T17:43:48.929Z,14.97
2022-08-23T17:48:47.931Z,17.53
2022-08-23T17:53:46.805Z,14.93
2022-08-23T17:58:45.308Z,17.70
2022-08-23T18:03:45.185Z,14.97
2022-08-23T18:08:43.520Z,14.60
2022-08-23T18:13:42.023Z,14.67
2022-08-23T18:18:40.791Z,14.43
2022-08-23T18:23:40.738Z,16.60
2022-08-23T18:28:39.407Z,13.33
2022-08-23T18:33:47.119Z,14.07
2022-08-23T18:38:47.521Z,13.37
2022-08-23T18:43:46.826Z,15.63
2022-08-23T18:48:53.304Z,13.80
2022-08-23T18:53:53.780Z,13.00
2022-08-23T18:58:53.822Z,13.67
2022-08-23T19:03:52.447Z,11.63
2022-08-23T19:08:51.825Z,12.40
2022-08-23T19:13:51.561Z,11.77
2022-08-23T19:18:50.956Z,11.53
2022-08-23T19:23:50.906Z,11.63
2022-08-23T19:28:51.123Z,12.13
2022-08-23T19:33:51.002Z,10.67
2022-08-23T19:38:49.307Z,13.23
2022-08-23T19:43:47.607Z,12.67
2022-08-23T19:48:48.766Z,11.93
2022-08-23T19:54:04.760Z,13.73
2022-08-23T19:59:13.797Z,10.50
2022-08-23T20:04:13.552Z,10.87
2022-08-23T20:09:11.965Z,9.70
2022-08-23T20:14:10.318Z,8.90
2022-08-23T20:19:11.249Z,11.67
2022-08-23T20:24:12.569Z,10.10
2022-08-23T20:29:12.788Z,11.33
2022-08-23T20:34:11.051Z,11.23
2022-08-23T20:39:12.442Z,9.10
2022-08-23T20:44:10.660Z,11.10
2022-08-23T20:49:09.266Z,12.93
2022-08-23T20:54:08.627Z,10.13
2022-08-23T20:59:09.737Z,12.90
2022-08-23T21:04:08.055Z,11.30
2022-08-23T21:09:06.533Z,10.00
2022-08-23T21:14:06.745Z,8.47
2022-08-23T21:19:07.120Z,9.03
2022-08-23T21:24:06.118Z,8.80
2022-08-23T21:29:05.809Z,9.73
2022-08-23T21:34:05.822Z,7.60
2022-08-23T21:39:04.356Z,10.33
2022-08-23T21:44:04.309Z,10.20
2022-08-23T21:49:02.823Z,11.20
2022-08-23T21:54:03.577Z,8.77
2022-08-23T21:59:04.058Z,9.30
2022-08-23T22:04:02.468Z,8.40
2022-08-23T22:09:02.339Z,12.90
2022-08-23T22:14:00.751Z,9.63
2022-08-23T22:19:00.018Z,10.73
2022-08-23T22:23:58.295Z,9.53
2022-08-23T22:28:58.126Z,8.63
2022-08-23T22:33:56.399Z,8.20
2022-08-23T22:38:56.297Z,8.50
2022-08-23T22:43:54.822Z,7.80
2022-08-23T22:48:54.813Z,7.67
2022-08-23T22:53:55.995Z,8.10
2022-08-23T22:58:54.731Z,7.17
2022-08-23T23:03:55.704Z,7.23
2022-08-23T23:08:55.199Z,11.50
2022-08-23T23:13:53.818Z,8.00
2022-08-23T23:19:06.504Z,8.17
2022-08-23T23:24:07.091Z,6.60
2022-08-23T23:29:05.443Z,7.90
2022-08-23T23:34:03.872Z,7.70
2022-08-23T23:39:03.044Z,6.90
2022-08-23T23:44:02.958Z,6.23
2022-08-23T23:49:01.374Z,8.30
2022-08-23T23:54:01.116Z,9.20
2022-08-23T23:59:00.149Z,7.20
